Time;durP1;ratioP1;P1;durP2;ratioP2;P2;SDS_P1;SDS_P2;PMS_P1;PMS_P2;Temp;Humidity;BMP_temperature;BMP_pressure;BME280_temperature;BME280_humidity;BME280_pressure;Samples;Min_cycle;Max_cycle;Signal;HPM_P1;HPM_P2
2021/12/30 00:04:59;;;;;;;3.80;1.77;;;;;;;11.96;100.00;100245.25;20973756;28;20045;-84
2021/12/30 00:15:04;;;;;;;5.85;2.47;;;;;;;11.85;100.00;100281.38;20992380;28;20567;-84
2021/12/30 00:25:06;;;;;;;4.77;1.60;;;;;;;11.71;100.00;100297.41;20972766;28;20125;-84
2021/12/30 00:35:10;;;;;;;5.25;1.58;;;;;;;11.76;100.00;100299.00;20970688;28;20036;-84
2021/12/30 00:45:11;;;;;;;4.57;1.30;;;;;;;11.81;100.00;100325.16;20988908;28;20444;-84
2021/12/30 00:55:15;;;;;;;5.47;1.58;;;;;;;11.80;100.00;100318.19;20987736;28;20044;-84
2021/12/30 01:05:17;;;;;;;5.00;1.67;;;;;;;11.56;100.00;100336.16;20968248;28;20037;-84
2021/12/30 01:15:21;;;;;;;5.40;1.60;;;;;;;11.57;100.00;100351.00;20969600;28;20053;-84
2021/12/30 01:25:22;;;;;;;6.30;1.67;;;;;;;11.49;100.00;100366.00;20987857;28;20048;-84
2021/12/30 01:35:25;;;;;;;4.97;1.73;;;;;;;11.47;100.00;100396.66;20967647;28;20579;-83
2021/12/30 01:45:27;;;;;;;3.78;1.63;;;;;;;11.40;100.00;100402.94;20967915;28;20045;-85
2021/12/30 01:55:31;;;;;;;5.00;1.58;;;;;;;11.49;100.00;100434.19;20967735;28;20045;-84
2021/12/30 02:05:33;;;;;;;4.80;1.43;;;;;;;11.54;100.00;100429.72;20978744;28;20117;-83
2021/12/30 02:15:35;;;;;;;4.20;1.70;;;;;;;11.64;100.00;100424.28;20993842;28;20468;-83
2021/12/30 02:25:36;;;;;;;3.53;1.30;;;;;;;11.70;100.00;100424.19;20999691;28;20416;-83
2021/12/30 02:35:38;;;;;;;4.82;1.60;;;;;;;11.75;100.00;100425.81;20998929;28;20444;-84
2021/12/30 02:45:40;;;;;;;5.90;1.25;;;;;;;11.84;100.00;100435.31;20984617;28;20122;-84
2021/12/30 02:55:44;;;;;;;5.10;1.30;;;;;;;11.82;100.00;100448.44;20987439;28;20045;-84
2021/12/30 03:05:47;;;;;;;3.63;1.30;;;;;;;11.91;100.00;100450.00;20993677;28;20045;-84
2021/12/30 03:15:48;;;;;;;2.55;1.10;;;;;;;11.97;100.00;100462.13;21009105;28;20049;-83
2021/12/30 03:25:50;;;;;;;4.43;1.50;;;;;;;12.07;100.00;100463.66;20994977;28;20131;-84
2021/12/30 03:35:51;;;;;;;3.33;1.25;;;;;;;12.06;100.00;100472.44;20975979;28;20094;-84
2021/12/30 03:45:53;;;;;;;3.70;1.00;;;;;;;12.29;100.00;100490.34;20994196;28;20045;-84
2021/12/30 03:55:54;;;;;;;2.35;0.80;;;;;;;12.29;100.00;100506.09;20978427;28;20195;-84
2021/12/30 04:05:56;;;;;;;2.25;0.75;;;;;;;12.32;100.00;100508.69;20981183;28;20045;-85
2021/12/30 04:15:58;;;;;;;2.72;1.20;;;;;;;12.34;100.00;100520.00;21004501;28;20102;-84
2021/12/30 04:25:59;;;;;;;4.40;1.25;;;;;;;12.41;100.00;100518.97;21000704;28;20045;-84
2021/12/30 04:36:01;;;;;;;2.45;1.48;;;;;;;12.31;100.00;100525.28;20976511;28;20040;-83
2021/12/30 04:46:03;;;;;;;4.70;1.55;;;;;;;12.41;100.00;100523.34;20982899;28;20106;-85
2021/12/30 04:56:05;;;;;;;3.75;1.55;;;;;;;12.47;100.00;100544.25;20987020;28;20048;-84
2021/12/30 05:06:06;;;;;;;3.65;1.23;;;;;;;12.51;100.00;100559.91;21006913;28;20494;-84
2021/12/30 05:16:08;;;;;;;4.10;1.05;;;;;;;12.48;100.00;100549.44;20993960;28;20045;-83
2021/12/30 05:26:11;;;;;;;2.92;1.00;;;;;;;12.54;100.00;100562.44;21006118;28;20390;-84
2021/12/30 05:36:12;;;;;;;2.63;1.10;;;;;;;12.51;100.00;100564.28;20980546;28;20090;-84
2021/12/30 05:46:13;;;;;;;2.15;1.00;;;;;;;12.63;100.00;100578.91;20980076;28;20049;-84
2021/12/30 05:56:15;;;;;;;1.77;0.90;;;;;;;12.58;100.00;100585.13;21013736;28;20045;-84
2021/12/30 06:06:17;;;;;;;2.28;1.02;;;;;;;12.62;100.00;100598.22;20995661;28;20086;-84
2021/12/30 06:16:18;;;;;;;2.17;0.90;;;;;;;12.57;100.00;100612.31;20996885;28;20044;-84
2021/12/30 06:26:20;;;;;;;2.55;1.10;;;;;;;12.55;100.00;100640.38;20999987;28;20052;-85
2021/12/30 06:36:21;;;;;;;3.15;1.10;;;;;;;12.51;100.00;100640.47;20994351;28;20045;-83
2021/12/30 06:46:23;;;;;;;3.20;1.13;;;;;;;12.54;100.00;100661.41;20990148;28;20040;-84
2021/12/30 06:56:25;;;;;;;3.85;1.45;;;;;;;12.56;100.00;100672.75;20991316;28;20114;-84
2021/12/30 07:06:26;;;;;;;2.15;1.00;;;;;;;12.59;100.00;100688.44;20997716;28;20688;-83
2021/12/30 07:16:28;;;;;;;4.68;1.00;;;;;;;12.64;100.00;100704.09;20981423;28;20045;-84
2021/12/30 07:26:30;;;;;;;3.45;0.90;;;;;;;12.66;100.00;100721.59;20983002;28;20131;-84
2021/12/30 07:36:31;;;;;;;2.25;0.70;;;;;;;12.64;100.00;100727.75;20985607;28;20106;-84
2021/12/30 07:46:32;;;;;;;4.80;0.85;;;;;;;12.69;100.00;100733.78;20993980;28;20105;-84
2021/12/30 07:56:34;;;;;;;1.25;0.60;;;;;;;12.81;100.00;100747.56;20977627;28;20261;-84
2021/12/30 08:06:36;;;;;;;3.47;0.98;;;;;;;12.71;100.00;100742.53;20994082;28;20047;-84
2021/12/30 08:16:37;;;;;;;2.80;0.77;;;;;;;12.77;100.00;100745.88;20993761;28;20048;-83
2021/12/30 08:26:40;;;;;;;3.30;0.75;;;;;;;12.73;100.00;100743.34;20977786;28;20063;-84
2021/12/30 08:36:41;;;;;;;2.83;1.20;;;;;;;12.65;100.00;100738.25;20970719;28;20126;-84
2021/12/30 08:46:43;;;;;;;4.43;1.73;;;;;;;12.72;100.00;100760.88;20895134;28;20041;-83
2021/12/30 08:56:44;;;;;;;3.20;1.30;;;;;;;12.65;100.00;100766.25;20897204;28;20410;-83
2021/12/30 09:06:46;;;;;;;6.15;2.80;;;;;;;12.68;100.00;100771.47;20887589;28;20041;-84
2021/12/30 09:16:49;;;;;;;2.08;1.00;;;;;;;12.88;100.00;100777.19;20888364;28;20045;-84
2021/12/30 09:26:51;;;;;;;4.75;1.05;;;;;;;12.94;100.00;100774.47;20886910;28;20557;-84
2021/12/30 09:36:52;;;;;;;3.65;1.40;;;;;;;12.95;100.00;100786.72;20886814;28;20094;-84
2021/12/30 09:46:54;;;;;;;5.32;1.20;;;;;;;13.06;100.00;100803.13;20887745;28;20045;-84
2021/12/30 09:56:55;;;;;;;7.85;1.20;;;;;;;13.10;100.00;100830.25;20907297;28;20382;-84
2021/12/30 10:06:58;;;;;;;4.22;1.85;;;;;;;13.00;100.00;100837.44;20897046;28;20522;-84
2021/12/30 10:17:21;;;;;;;3.83;1.30;;;;;;;12.96;100.00;100830.50;20885563;28;20049;-84
2021/12/30 10:27:26;;;;;;;4.22;1.30;;;;;;;12.91;100.00;100832.34;20885788;28;20529;-84
2021/12/30 10:37:28;;;;;;;;;;;;;;;12.87;100.00;100832.44;20896713;28;20075;-84
2021/12/30 10:47:49;;;;;;;5.07;2.47;;;;;;;12.87;100.00;100824.53;20917747;28;19921;-84
2021/12/30 10:57:51;;;;;;;3.17;1.35;;;;;;;12.87;100.00;100828.03;20920409;28;20049;-84
2021/12/30 11:07:53;;;;;;;5.75;2.25;;;;;;;12.87;100.00;100821.91;20907379;28;20045;-84
2021/12/30 11:18:13;;;;;;;3.35;1.67;;;;;;;12.96;100.00;100820.00;20994311;28;20044;-84
2021/12/30 11:28:14;;;;;;;3.75;1.95;;;;;;;13.00;100.00;100815.53;20997400;28;20455;-84
2021/12/30 11:38:16;;;;;;;7.78;4.22;;;;;;;13.03;100.00;100795.34;20977089;28;20120;-84
2021/12/30 11:48:25;;;;;;;7.25;3.90;;;;;;;13.08;100.00;100787.34;20975611;28;20094;-84
2021/12/30 11:58:41;;;;;;;8.83;4.40;;;;;;;13.25;100.00;100789.66;20994443;28;20106;-84
2021/12/30 12:08:45;;;;;;;8.10;4.38;;;;;;;13.21;100.00;100796.72;20979087;28;20098;-83
2021/12/30 12:19:17;;;;;;;4.43;2.00;;;;;;;13.36;100.00;100787.66;20981488;28;20106;-85
2021/12/30 12:29:41;;;;;;;4.57;2.20;;;;;;;13.45;100.00;100782.22;20979411;28;20049;-84
2021/12/30 12:39:43;;;;;;;3.85;1.80;;;;;;;13.58;100.00;100788.94;20972267;28;20094;-84
2021/12/30 12:49:49;;;;;;;3.92;1.65;;;;;;;13.57;100.00;100792.50;20990112;28;20131;-84
2021/12/30 12:59:50;;;;;;;2.83;1.30;;;;;;;13.72;100.00;100793.06;20969930;28;20094;-84
2021/12/30 13:09:54;;;;;;;3.53;1.65;;;;;;;13.68;100.00;100784.34;20968619;28;20102;-84
2021/12/30 13:19:55;;;;;;;4.30;1.92;;;;;;;13.75;100.00;100780.69;20891243;28;20049;-84
2021/12/30 13:30:05;;;;;;;3.45;1.20;;;;;;;13.82;100.00;100791.94;20900966;28;20126;-84
2021/12/30 13:40:29;;;;;;;3.13;1.58;;;;;;;13.80;100.00;100809.53;20884875;28;20095;-84
2021/12/30 13:50:31;;;;;;;3.47;1.58;;;;;;;13.65;100.00;100813.34;20886828;28;20106;-84
2021/12/30 14:00:42;;;;;;;4.70;1.60;;;;;;;13.48;100.00;100823.38;20887436;28;20417;-83
2021/12/30 14:10:54;;;;;;;7.28;2.83;;;;;;;13.45;100.00;100837.47;20894314;28;20045;-84
2021/12/30 14:20:55;;;;;;;7.20;2.40;;;;;;;13.43;100.00;100856.81;20904190;28;20049;-84
2021/12/30 14:30:58;;;;;;;8.73;5.00;;;;;;;13.43;100.00;100846.28;20909656;28;20045;-84
2021/12/30 14:41:16;;;;;;;8.93;4.07;;;;;;;13.29;100.00;100855.31;20913658;28;20416;-84
2021/12/30 14:51:19;;;;;;;8.55;5.40;;;;;;;13.07;100.00;100875.84;20899710;28;20049;-84
2021/12/30 15:01:20;;;;;;;5.30;2.75;;;;;;;13.06;100.00;100884.63;20898395;28;20049;-84
2021/12/30 15:11:23;;;;;;;6.10;2.50;;;;;;;13.26;100.00;100899.22;20898000;28;20090;-83
2021/12/30 15:21:25;;;;;;;5.68;3.15;;;;;;;13.15;100.00;100899.38;20916556;28;20056;-83
2021/12/30 15:31:26;;;;;;;8.88;4.25;;;;;;;13.09;100.00;100905.63;20901298;28;20048;-84
2021/12/30 15:41:28;;;;;;;7.45;4.38;;;;;;;13.04;100.00;100914.50;20923558;28;20048;-84
2021/12/30 15:51:30;;;;;;;6.28;2.42;;;;;;;13.00;100.00;100924.19;20908135;28;20512;-83
2021/12/30 16:01:31;;;;;;;3.75;1.83;;;;;;;12.93;100.00;100940.94;20896035;28;20041;-84
2021/12/30 16:11:34;;;;;;;3.58;1.60;;;;;;;13.00;100.00;100954.88;20935956;28;20181;-84
2021/12/30 16:21:37;;;;;;;7.00;2.05;;;;;;;12.94;100.00;100974.25;20973577;28;20090;-83
2021/12/30 16:31:39;;;;;;;3.70;1.60;;;;;;;12.93;100.00;100990.00;20992963;28;20044;-84
2021/12/30 16:41:41;;;;;;;6.20;1.67;;;;;;;12.82;100.00;100985.78;20977266;28;20640;-83
2021/12/30 16:51:43;;;;;;;4.15;1.92;;;;;;;12.81;100.00;100977.94;20994945;28;20055;-84
2021/12/30 17:01:45;;;;;;;5.57;2.90;;;;;;;12.80;100.00;100963.94;20978603;28;20057;-84
2021/12/30 17:11:47;;;;;;;6.22;2.05;;;;;;;12.92;100.00;100985.66;20975891;28;20122;-84
2021/12/30 17:21:49;;;;;;;5.38;1.80;;;;;;;12.85;100.00;100995.41;20974173;28;20051;-85
2021/12/30 17:31:50;;;;;;;5.95;2.88;;;;;;;12.84;100.00;101009.44;20969598;28;20056;-84
2021/12/30 17:41:53;;;;;;;4.85;2.00;;;;;;;12.82;100.00;101008.59;20973412;28;20049;-83
2021/12/30 17:51:55;;;;;;;4.85;2.00;;;;;;;12.81;100.00;101030.50;20990734;28;20110;-84
2021/12/30 18:01:56;;;;;;;5.10;2.20;;;;;;;12.79;100.00;101027.00;21010714;28;20053;-84
2021/12/30 18:11:58;;;;;;;6.43;2.47;;;;;;;12.81;100.00;101033.13;20990020;28;20102;-84
2021/12/30 18:22:03;;;;;;;4.90;2.28;;;;;;;12.82;100.00;101040.97;20985029;28;20055;-85
2021/12/30 18:32:05;;;;;;;6.53;4.38;;;;;;;12.82;100.00;101040.97;21001319;28;20118;-84
2021/12/30 18:42:08;;;;;;;6.95;3.85;;;;;;;12.80;100.00;101062.94;20983005;28;20049;-84
2021/12/30 18:52:15;;;;;;;6.28;2.97;;;;;;;12.83;100.00;101057.63;20981870;28;20049;-84
2021/12/30 19:02:16;;;;;;;8.63;3.22;;;;;;;12.84;100.00;101048.88;20997780;28;20417;-84
2021/12/30 19:12:20;;;;;;;6.40;3.08;;;;;;;12.76;100.00;101040.22;21003303;28;20429;-84
2021/12/30 19:22:21;;;;;;;7.65;2.58;;;;;;;12.76;100.00;101053.34;20983029;28;20110;-83
2021/12/30 19:32:24;;;;;;;12.43;7.15;;;;;;;12.65;100.00;101065.75;20998207;28;20037;-84
2021/12/30 19:42:26;;;;;;;7.85;4.50;;;;;;;12.67;100.00;101064.84;20979102;28;20062;-84
2021/12/30 19:52:28;;;;;;;6.88;3.03;;;;;;;12.77;100.00;101074.34;20994978;28;20094;-84
2021/12/30 20:02:30;;;;;;;6.43;3.05;;;;;;;12.79;100.00;101085.72;20976085;28;20075;-83
2021/12/30 20:12:32;;;;;;;7.22;4.10;;;;;;;12.69;100.00;101077.97;20956736;28;20045;-84
2021/12/30 20:22:37;;;;;;;7.13;3.85;;;;;;;12.73;100.00;101070.00;20905373;28;20079;-85
2021/12/30 20:32:40;;;;;;;6.78;2.80;;;;;;;12.59;100.00;101078.09;20894884;28;20103;-84
2021/12/30 20:42:42;;;;;;;6.45;2.00;;;;;;;12.65;100.00;101092.03;20892311;28;20103;-84
2021/12/30 20:52:46;;;;;;;5.97;3.05;;;;;;;12.66;100.00;101084.16;20892668;28;20465;-84
2021/12/30 21:02:48;;;;;;;6.55;2.80;;;;;;;12.66;100.00;101083.28;20892511;28;20564;-84
2021/12/30 21:12:51;;;;;;;5.68;2.80;;;;;;;12.73;100.00;101084.91;20907479;28;20456;-84
2021/12/30 21:22:55;;;;;;;7.47;3.47;;;;;;;12.56;100.00;101109.66;20891030;28;20056;-83
2021/12/30 21:33:02;;;;;;;8.07;3.83;;;;;;;12.52;100.00;101128.13;20919556;28;20494;-84
2021/12/30 21:43:04;;;;;;;8.40;4.38;;;;;;;12.42;100.00;101131.72;20887985;28;20110;-84
2021/12/30 21:53:07;;;;;;;9.10;4.22;;;;;;;12.42;100.00;101131.72;20905162;28;20049;-83
2021/12/30 22:03:09;;;;;;;8.82;4.28;;;;;;;12.35;100.00;101141.41;20885375;28;20099;-84
2021/12/30 22:13:12;;;;;;;7.78;3.50;;;;;;;12.28;100.00;101134.50;20885576;28;20045;-84
2021/12/30 22:23:15;;;;;;;8.30;3.10;;;;;;;12.26;100.00;101141.53;20885934;28;20075;-84
2021/12/30 22:33:17;;;;;;;8.10;2.60;;;;;;;12.28;100.00;101145.00;20917545;28;20045;-84
2021/12/30 22:43:28;;;;;;;4.25;2.10;;;;;;;12.32;100.00;101137.09;20926951;28;20072;-84
2021/12/30 22:53:29;;;;;;;4.55;2.00;;;;;;;12.21;100.00;101127.56;20899731;28;20057;-84
2021/12/30 23:03:35;;;;;;;5.05;2.35;;;;;;;12.23;100.00;101125.81;20898433;28;20045;-84
2021/12/30 23:13:36;;;;;;;6.78;3.08;;;;;;;12.20;100.00;101123.22;20896712;28;20732;-84
2021/12/30 23:23:38;;;;;;;8.70;3.70;;;;;;;12.14;100.00;101116.28;20915214;28;20076;-84
2021/12/30 23:33:40;;;;;;;9.18;4.38;;;;;;;12.15;100.00;101120.63;20900259;28;20509;-84
2021/12/30 23:43:42;;;;;;;17.17;9.32;;;;;;;12.11;100.00;101120.69;20902623;28;20045;-84
2021/12/30 23:53:44;;;;;;;20.50;10.75;;;;;;;12.10;100.00;101108.44;20920124;28;20045;-84
